Champions Gate, Florida
Current Conditions -  °F | °C
As of 2:50 PM on Monday 24 Nov 2014 (Local Time) from KISM Reporting Station
Broken Clouds Broken Clouds  
Wind Chill: 86°   Ceiling: 4000
Heat Index: 92°   Visibility: 10mi
Dew Point: 72°   Wind: 12mph
Humidity: 62%   Direction: 220°SW
Pressure: 29.93"   Gusts: 18mph
Location:  28.2515°N, 81.6002°W
Report Text: KISM 241950Z 22010G16KT 10SM BKN040 30/22 A2993
Loading
Personal Weather Stations






























Interactive Weather Map New forecast layout! Learn more

10-Day Weather Forecast

Advertisements
Track Severe Weather on mobile